sensor_id;sensor_type;location;lat;lon;timestamp;pressure;altitude;pressure_sealevel;temperature;humidity
43488;BME280;29078;41.932;25.554;2022-08-01T00:01:31;99170.25;;;25.71;52.22
43488;BME280;29078;41.932;25.554;2022-08-01T00:03:56;99155.16;;;25.64;52.08
43488;BME280;29078;41.932;25.554;2022-08-01T00:06:22;99093.47;;;25.14;52.18
43488;BME280;29078;41.932;25.554;2022-08-01T00:08:47;99154.09;;;25.65;51.97
43488;BME280;29078;41.932;25.554;2022-08-01T00:11:13;99138.69;;;25.61;51.59
43488;BME280;29078;41.932;25.554;2022-08-01T00:13:39;99152.44;;;25.70;51.50
43488;BME280;29078;41.932;25.554;2022-08-01T00:16:04;99126.84;;;25.57;51.71
43488;BME280;29078;41.932;25.554;2022-08-01T00:18:29;99150.25;;;25.72;51.54
43488;BME280;29078;41.932;25.554;2022-08-01T00:20:55;99154.31;;;25.69;51.57
43488;BME280;29078;41.932;25.554;2022-08-01T00:23:20;99152.72;;;25.68;51.51
43488;BME280;29078;41.932;25.554;2022-08-01T00:25:46;99155.72;;;25.67;51.11
43488;BME280;29078;41.932;25.554;2022-08-01T00:28:11;99103.59;;;25.32;51.48
43488;BME280;29078;41.932;25.554;2022-08-01T00:30:38;99149.75;;;25.64;51.14
43488;BME280;29078;41.932;25.554;2022-08-01T00:33:04;99149.81;;;25.59;51.73
43488;BME280;29078;41.932;25.554;2022-08-01T00:35:29;99150.09;;;25.58;51.68
43488;BME280;29078;41.932;25.554;2022-08-01T00:37:54;99150.66;;;25.55;51.64
43488;BME280;29078;41.932;25.554;2022-08-01T00:40:20;99147.97;;;25.55;51.54
43488;BME280;29078;41.932;25.554;2022-08-01T00:42:45;99132.19;;;25.38;51.69
43488;BME280;29078;41.932;25.554;2022-08-01T00:45:11;99121.13;;;25.34;51.98
43488;BME280;29078;41.932;25.554;2022-08-01T00:47:37;99079.16;;;25.13;51.90
43488;BME280;29078;41.932;25.554;2022-08-01T00:50:06;99149.56;;;25.56;51.56
43488;BME280;29078;41.932;25.554;2022-08-01T00:52:33;99081.22;;;25.21;51.68
43488;BME280;29078;41.932;25.554;2022-08-01T00:54:58;99131.28;;;25.48;51.36
43488;BME280;29078;41.932;25.554;2022-08-01T00:57:24;99145.31;;;25.50;51.27
43488;BME280;29078;41.932;25.554;2022-08-01T00:59:50;99125.44;;;25.36;51.49
43488;BME280;29078;41.932;25.554;2022-08-01T01:02:17;99143.69;;;25.49;50.97
43488;BME280;29078;41.932;25.554;2022-08-01T01:04:43;99098.25;;;25.22;50.82
43488;BME280;29078;41.932;25.554;2022-08-01T01:10:08;99135.88;;;25.47;50.96
43488;BME280;29078;41.932;25.554;2022-08-01T01:12:42;99135.13;;;25.42;51.05
43488;BME280;29078;41.932;25.554;2022-08-01T01:15:15;99070.41;;;24.92;50.82
43488;BME280;29078;41.932;25.554;2022-08-01T01:17:55;99136.53;;;25.34;50.60
43488;BME280;29078;41.932;25.554;2022-08-01T01:20:27;99139.75;;;25.36;50.44
43488;BME280;29078;41.932;25.554;2022-08-01T01:28:20;99133.59;;;25.59;47.75
43488;BME280;29078;41.932;25.554;2022-08-01T01:30:51;99123.81;;;25.63;47.47
43488;BME280;29078;41.932;25.554;2022-08-01T01:33:19;99096.34;;;25.51;47.07
43488;BME280;29078;41.932;25.554;2022-08-01T01:35:48;99098.78;;;25.53;46.41
43488;BME280;29078;41.932;25.554;2022-08-01T01:38:21;99131.31;;;25.72;46.02
43488;BME280;29078;41.932;25.554;2022-08-01T01:40:49;99130.28;;;25.68;46.22
43488;BME280;29078;41.932;25.554;2022-08-01T01:43:16;99113.53;;;25.65;45.59
43488;BME280;29078;41.932;25.554;2022-08-01T01:45:44;99122.16;;;25.68;45.68
43488;BME280;29078;41.932;25.554;2022-08-01T01:48:13;99129.50;;;25.62;45.82
43488;BME280;29078;41.932;25.554;2022-08-01T01:50:40;99132.72;;;25.64;45.93
43488;BME280;29078;41.932;25.554;2022-08-01T01:53:09;99126.03;;;25.56;45.52
43488;BME280;29078;41.932;25.554;2022-08-01T01:55:39;99097.97;;;25.52;45.70
43488;BME280;29078;41.932;25.554;2022-08-01T01:58:06;99110.63;;;25.57;45.41
43488;BME280;29078;41.932;25.554;2022-08-01T02:00:33;99117.88;;;25.61;45.41
43488;BME280;29078;41.932;25.554;2022-08-01T02:03:00;99123.00;;;25.63;45.22
43488;BME280;29078;41.932;25.554;2022-08-01T02:05:28;99116.28;;;25.60;45.25
43488;BME280;29078;41.932;25.554;2022-08-01T02:07:54;99125.81;;;25.53;45.26
43488;BME280;29078;41.932;25.554;2022-08-01T02:10:20;99134.38;;;25.60;45.30
43488;BME280;29078;41.932;25.554;2022-08-01T02:12:48;99112.00;;;25.54;45.38
43488;BME280;29078;41.932;25.554;2022-08-01T02:15:16;99123.69;;;25.50;45.48
43488;BME280;29078;41.932;25.554;2022-08-01T02:17:47;99128.16;;;25.36;45.46
43488;BME280;29078;41.932;25.554;2022-08-01T02:20:14;99135.78;;;25.28;45.90
43488;BME280;29078;41.932;25.554;2022-08-01T02:22:49;99120.69;;;25.22;45.87
43488;BME280;29078;41.932;25.554;2022-08-01T02:25:22;99119.63;;;25.18;46.05
43488;BME280;29078;41.932;25.554;2022-08-01T02:30:26;99118.53;;;25.19;45.78
43488;BME280;29078;41.932;25.554;2022-08-01T02:33:02;99107.25;;;25.12;45.64
43488;BME280;29078;41.932;25.554;2022-08-01T02:35:30;99110.94;;;25.21;45.82
43488;BME280;29078;41.932;25.554;2022-08-01T02:37:58;99119.91;;;25.17;45.68
43488;BME280;29078;41.932;25.554;2022-08-01T02:40:27;99084.69;;;24.93;45.54
43488;BME280;29078;41.932;25.554;2022-08-01T02:42:54;99111.53;;;25.18;45.53
43488;BME280;29078;41.932;25.554;2022-08-01T02:45:24;99072.25;;;24.97;44.76
43488;BME280;29078;41.932;25.554;2022-08-01T02:47:52;99117.94;;;25.27;44.69
43488;BME280;29078;41.932;25.554;2022-08-01T02:50:20;99076.22;;;25.10;44.38
43488;BME280;29078;41.932;25.554;2022-08-01T02:52:48;99105.25;;;25.23;44.53
43488;BME280;29078;41.932;25.554;2022-08-01T02:55:15;99057.22;;;24.86;44.14
43488;BME280;29078;41.932;25.554;2022-08-01T02:57:43;99057.31;;;24.76;44.34
43488;BME280;29078;41.932;25.554;2022-08-01T03:00:10;99104.06;;;25.05;44.06
43488;BME280;29078;41.932;25.554;2022-08-01T03:02:36;99091.25;;;24.87;44.19
43488;BME280;29078;41.932;25.554;2022-08-01T03:05:03;99106.31;;;24.98;44.22
43488;BME280;29078;41.932;25.554;2022-08-01T03:07:30;99117.09;;;24.98;43.83
43488;BME280;29078;41.932;25.554;2022-08-01T03:09:57;99130.88;;;24.96;43.84
43488;BME280;29078;41.932;25.554;2022-08-01T03:12:26;99130.59;;;24.98;43.69
43488;BME280;29078;41.932;25.554;2022-08-01T03:14:53;99113.38;;;24.89;43.82
43488;BME280;29078;41.932;25.554;2022-08-01T03:17:21;99076.28;;;24.65;43.71
43488;BME280;29078;41.932;25.554;2022-08-01T03:19:48;99120.88;;;24.97;43.65
43488;BME280;29078;41.932;25.554;2022-08-01T03:22:15;99117.34;;;24.96;43.90
43488;BME280;29078;41.932;25.554;2022-08-01T03:24:42;99124.94;;;24.94;43.73
43488;BME280;29078;41.932;25.554;2022-08-01T03:27:09;99129.09;;;24.82;43.72
43488;BME280;29078;41.932;25.554;2022-08-01T03:29:37;99103.00;;;24.67;43.74
43488;BME280;29078;41.932;25.554;2022-08-01T03:32:04;99121.22;;;24.85;43.88
43488;BME280;29078;41.932;25.554;2022-08-01T03:34:31;99055.06;;;24.49;43.62
43488;BME280;29078;41.932;25.554;2022-08-01T03:39:30;99084.34;;;24.70;43.31
43488;BME280;29078;41.932;25.554;2022-08-01T03:42:00;99120.63;;;24.93;43.38
43488;BME280;29078;41.932;25.554;2022-08-01T03:44:27;99109.09;;;24.83;43.24
43488;BME280;29078;41.932;25.554;2022-08-01T03:47:03;99113.38;;;24.89;43.28
43488;BME280;29078;41.932;25.554;2022-08-01T03:49:31;99116.34;;;24.87;43.44
43488;BME280;29078;41.932;25.554;2022-08-01T03:51:58;99087.03;;;24.70;43.14
43488;BME280;29078;41.932;25.554;2022-08-01T03:54:31;99116.66;;;24.81;43.38
43488;BME280;29078;41.932;25.554;2022-08-01T03:56:59;99107.53;;;24.77;43.41
43488;BME280;29078;41.932;25.554;2022-08-01T03:59:26;99115.59;;;24.82;43.37
43488;BME280;29078;41.932;25.554;2022-08-01T04:01:52;99120.47;;;24.80;43.21
43488;BME280;29078;41.932;25.554;2022-08-01T04:04:18;99118.28;;;24.82;43.21
43488;BME280;29078;41.932;25.554;2022-08-01T04:06:44;99076.56;;;24.64;43.42
43488;BME280;29078;41.932;25.554;2022-08-01T04:09:10;99121.47;;;24.89;43.23
43488;BME280;29078;41.932;25.554;2022-08-01T04:11:37;99120.34;;;24.95;43.07
43488;BME280;29078;41.932;25.554;2022-08-01T04:14:03;99122.50;;;24.98;42.80
43488;BME280;29078;41.932;25.554;2022-08-01T04:16:28;99120.31;;;25.00;42.90
43488;BME280;29078;41.932;25.554;2022-08-01T04:18:54;99073.03;;;24.68;42.73
43488;BME280;29078;41.932;25.554;2022-08-01T04:21:23;99085.13;;;24.76;42.78
43488;BME280;29078;41.932;25.554;2022-08-01T04:23:51;99104.78;;;24.82;42.76
43488;BME280;29078;41.932;25.554;2022-08-01T04:26:19;99102.28;;;24.90;42.69
43488;BME280;29078;41.932;25.554;2022-08-01T04:28:48;99081.56;;;24.81;42.23
43488;BME280;29078;41.932;25.554;2022-08-01T04:31:16;99126.72;;;25.09;42.13
43488;BME280;29078;41.932;25.554;2022-08-01T04:33:46;99126.50;;;25.06;42.41
43488;BME280;29078;41.932;25.554;2022-08-01T04:36:14;99107.13;;;24.93;41.80
43488;BME280;29078;41.932;25.554;2022-08-01T04:38:42;99134.03;;;25.09;41.59
43488;BME280;29078;41.932;25.554;2022-08-01T04:41:12;99125.94;;;25.09;41.47
43488;BME280;29078;41.932;25.554;2022-08-01T04:43:38;99088.56;;;24.82;41.10
43488;BME280;29078;41.932;25.554;2022-08-01T04:46:04;99122.13;;;25.10;41.18
43488;BME280;29078;41.932;25.554;2022-08-01T04:48:32;99078.59;;;24.82;40.94
43488;BME280;29078;41.932;25.554;2022-08-01T04:50:58;99117.03;;;25.08;40.58
43488;BME280;29078;41.932;25.554;2022-08-01T04:53:24;99081.75;;;24.89;40.57
43488;BME280;29078;41.932;25.554;2022-08-01T04:55:51;99129.06;;;25.21;40.06
43488;BME280;29078;41.932;25.554;2022-08-01T04:58:17;99128.31;;;25.15;40.16
43488;BME280;29078;41.932;25.554;2022-08-01T05:00:42;99125.28;;;25.22;40.00
43488;BME280;29078;41.932;25.554;2022-08-01T05:03:08;99120.09;;;25.25;39.67
43488;BME280;29078;41.932;25.554;2022-08-01T05:05:34;99113.59;;;25.26;39.62
43488;BME280;29078;41.932;25.554;2022-08-01T05:08:00;99121.06;;;25.40;39.56
43488;BME280;29078;41.932;25.554;2022-08-01T05:10:26;99126.19;;;25.41;39.37
43488;BME280;29078;41.932;25.554;2022-08-01T05:12:51;99081.81;;;25.18;39.30
43488;BME280;29078;41.932;25.554;2022-08-01T05:15:17;99076.69;;;25.17;39.13
43488;BME280;29078;41.932;25.554;2022-08-01T05:17:42;99103.00;;;25.35;38.72
43488;BME280;29078;41.932;25.554;2022-08-01T05:20:08;99098.41;;;25.36;38.31
43488;BME280;29078;41.932;25.554;2022-08-01T05:22:33;99098.84;;;25.48;37.80
43488;BME280;29078;41.932;25.554;2022-08-01T05:24:59;99104.47;;;25.51;37.64
43488;BME280;29078;41.932;25.554;2022-08-01T05:27:25;99068.28;;;25.18;37.25
43488;BME280;29078;41.932;25.554;2022-08-01T05:29:50;99027.91;;;25.03;37.38
43488;BME280;29078;41.932;25.554;2022-08-01T05:32:16;99097.56;;;25.64;36.97
43488;BME280;29078;41.932;25.554;2022-08-01T05:34:41;99119.19;;;25.64;36.89
43488;BME280;29078;41.932;25.554;2022-08-01T05:37:06;99079.38;;;25.46;36.98
43488;BME280;29078;41.932;25.554;2022-08-01T05:39:32;99122.84;;;25.78;36.72
43488;BME280;29078;41.932;25.554;2022-08-01T05:41:58;99117.44;;;25.78;36.67
43488;BME280;29078;41.932;25.554;2022-08-01T05:44:23;99071.41;;;25.59;37.02
43488;BME280;29078;41.932;25.554;2022-08-01T05:46:49;99122.97;;;25.92;36.74
43488;BME280;29078;41.932;25.554;2022-08-01T05:49:14;99117.41;;;25.83;36.51
43488;BME280;29078;41.932;25.554;2022-08-01T05:51:39;99041.84;;;25.44;36.68
43488;BME280;29078;41.932;25.554;2022-08-01T05:54:05;99121.59;;;25.94;37.06
43488;BME280;29078;41.932;25.554;2022-08-01T05:56:30;99080.81;;;25.67;36.73
43488;BME280;29078;41.932;25.554;2022-08-01T05:58:56;99125.84;;;26.01;36.85
43488;BME280;29078;41.932;25.554;2022-08-01T06:01:21;99107.97;;;26.05;36.84
43488;BME280;29078;41.932;25.554;2022-08-01T06:03:47;99077.84;;;25.87;36.71
43488;BME280;29078;41.932;25.554;2022-08-01T06:06:12;99126.78;;;26.15;36.52
43488;BME280;29078;41.932;25.554;2022-08-01T06:08:39;99118.06;;;26.18;36.25
43488;BME280;29078;41.932;25.554;2022-08-01T06:11:05;99113.47;;;26.18;35.99
43488;BME280;29078;41.932;25.554;2022-08-01T06:13:30;99088.44;;;26.08;35.61
43488;BME280;29078;41.932;25.554;2022-08-01T06:15:56;99101.84;;;26.18;35.68
43488;BME280;29078;41.932;25.554;2022-08-01T06:18:21;99109.81;;;26.28;35.44
43488;BME280;29078;41.932;25.554;2022-08-01T06:20:47;99040.16;;;25.96;35.10
43488;BME280;29078;41.932;25.554;2022-08-01T06:23:13;99058.91;;;26.11;35.41
43488;BME280;29078;41.932;25.554;2022-08-01T06:25:40;99060.16;;;26.19;35.17
43488;BME280;29078;41.932;25.554;2022-08-01T06:28:06;99085.84;;;26.40;35.22
43488;BME280;29078;41.932;25.554;2022-08-01T06:30:31;99056.56;;;26.23;34.66
43488;BME280;29078;41.932;25.554;2022-08-01T06:32:56;99099.38;;;26.59;34.33
43488;BME280;29078;41.932;25.554;2022-08-01T06:35:23;99101.00;;;26.60;33.77
43488;BME280;29078;41.932;25.554;2022-08-01T06:37:49;99097.69;;;26.63;32.95
43488;BME280;29078;41.932;25.554;2022-08-01T06:40:14;99087.09;;;26.67;32.54
43488;BME280;29078;41.932;25.554;2022-08-01T06:42:40;99091.31;;;26.73;32.33
43488;BME280;29078;41.932;25.554;2022-08-01T06:45:08;99105.16;;;26.90;31.52
43488;BME280;29078;41.932;25.554;2022-08-01T06:47:33;99095.22;;;26.85;31.25
43488;BME280;29078;41.932;25.554;2022-08-01T06:49:59;99074.84;;;26.88;30.73
43488;BME280;29078;41.932;25.554;2022-08-01T06:52:25;99090.72;;;26.95;31.15
43488;BME280;29078;41.932;25.554;2022-08-01T06:54:51;99078.22;;;26.99;30.89
43488;BME280;29078;41.932;25.554;2022-08-01T06:57:16;99074.16;;;26.96;30.24
43488;BME280;29078;41.932;25.554;2022-08-01T06:59:42;99084.97;;;27.15;30.26
43488;BME280;29078;41.932;25.554;2022-08-01T07:02:08;99089.81;;;27.18;30.02
43488;BME280;29078;41.932;25.554;2022-08-01T07:04:34;99088.81;;;27.28;30.05
43488;BME280;29078;41.932;25.554;2022-08-01T07:06:59;99070.34;;;27.30;29.74
43488;BME280;29078;41.932;25.554;2022-08-01T07:09:26;99009.09;;;27.01;29.57
43488;BME280;29078;41.932;25.554;2022-08-01T07:11:51;99083.81;;;27.48;29.48
43488;BME280;29078;41.932;25.554;2022-08-01T07:14:18;99078.69;;;27.47;29.35
43488;BME280;29078;41.932;25.554;2022-08-01T07:16:44;99077.22;;;27.54;29.24
43488;BME280;29078;41.932;25.554;2022-08-01T07:19:09;99091.09;;;27.53;29.11
43488;BME280;29078;41.932;25.554;2022-08-01T07:21:35;99089.97;;;27.54;28.98
43488;BME280;29078;41.932;25.554;2022-08-01T07:24:00;99084.06;;;27.52;28.99
43488;BME280;29078;41.932;25.554;2022-08-01T07:26:26;99034.72;;;27.36;28.78
43488;BME280;29078;41.932;25.554;2022-08-01T07:28:52;99070.72;;;27.69;29.10
43488;BME280;29078;41.932;25.554;2022-08-01T07:31:18;99069.81;;;27.74;28.56
43488;BME280;29078;41.932;25.554;2022-08-01T07:33:44;99064.09;;;27.75;28.87
43488;BME280;29078;41.932;25.554;2022-08-01T07:36:09;99019.66;;;27.30;28.62
43488;BME280;29078;41.932;25.554;2022-08-01T07:38:35;99066.81;;;27.75;28.47
43488;BME280;29078;41.932;25.554;2022-08-01T07:41:00;99076.44;;;27.81;28.57
43488;BME280;29078;41.932;25.554;2022-08-01T07:43:25;99056.25;;;27.74;28.85
43488;BME280;29078;41.932;25.554;2022-08-01T07:45:51;99037.97;;;27.66;28.41
43488;BME280;29078;41.932;25.554;2022-08-01T07:48:16;99070.00;;;27.91;28.49
43488;BME280;29078;41.932;25.554;2022-08-01T07:50:41;99069.28;;;27.99;28.28
43488;BME280;29078;41.932;25.554;2022-08-01T07:53:07;99016.88;;;27.76;27.85
43488;BME280;29078;41.932;25.554;2022-08-01T07:55:35;99072.59;;;28.10;28.08
43488;BME280;29078;41.932;25.554;2022-08-01T07:58:00;99065.13;;;28.15;28.19
43488;BME280;29078;41.932;25.554;2022-08-01T08:00:26;99069.88;;;28.24;27.77
43488;BME280;29078;41.932;25.554;2022-08-01T08:02:52;99077.63;;;28.30;27.88
43488;BME280;29078;41.932;25.554;2022-08-01T08:05:18;99050.06;;;28.23;27.80
43488;BME280;29078;41.932;25.554;2022-08-01T08:07:44;99023.13;;;28.13;27.76
43488;BME280;29078;41.932;25.554;2022-08-01T08:10:10;99074.94;;;28.53;27.68
43488;BME280;29078;41.932;25.554;2022-08-01T08:12:36;99063.34;;;28.61;27.65
43488;BME280;29078;41.932;25.554;2022-08-01T08:15:01;99030.44;;;28.40;27.69
43488;BME280;29078;41.932;25.554;2022-08-01T08:17:30;99079.88;;;28.73;27.54
43488;BME280;29078;41.932;25.554;2022-08-01T08:19:57;99013.38;;;28.26;27.28
43488;BME280;29078;41.932;25.554;2022-08-01T08:22:22;99036.28;;;28.56;27.68
43488;BME280;29078;41.932;25.554;2022-08-01T08:24:47;99074.50;;;28.82;27.57
43488;BME280;29078;41.932;25.554;2022-08-01T08:27:13;99073.00;;;28.89;27.55
43488;BME280;29078;41.932;25.554;2022-08-01T08:29:39;99069.84;;;28.96;27.61
43488;BME280;29078;41.932;25.554;2022-08-01T08:32:05;99076.19;;;29.14;27.37
43488;BME280;29078;41.932;25.554;2022-08-01T08:34:31;99039.03;;;29.00;27.09
43488;BME280;29078;41.932;25.554;2022-08-01T08:36:57;99060.28;;;29.29;26.97
43488;BME280;29078;41.932;25.554;2022-08-01T08:39:23;99028.56;;;29.16;27.25
43488;BME280;29078;41.932;25.554;2022-08-01T08:41:49;99069.03;;;29.49;27.39
43488;BME280;29078;41.932;25.554;2022-08-01T08:44:14;99063.63;;;29.57;26.98
43488;BME280;29078;41.932;25.554;2022-08-01T08:46:43;99082.06;;;29.69;27.10
43488;BME280;29078;41.932;25.554;2022-08-01T08:49:10;99060.44;;;29.64;27.10
43488;BME280;29078;41.932;25.554;2022-08-01T08:51:38;99062.22;;;29.68;26.92
43488;BME280;29078;41.932;25.554;2022-08-01T08:54:05;99008.38;;;29.48;27.00
43488;BME280;29078;41.932;25.554;2022-08-01T08:56:31;98993.53;;;29.63;26.82
43488;BME280;29078;41.932;25.554;2022-08-01T08:59:00;99065.25;;;30.15;26.24
43488;BME280;29078;41.932;25.554;2022-08-01T09:01:26;99059.16;;;30.18;25.87
43488;BME280;29078;41.932;25.554;2022-08-01T09:03:53;99053.09;;;30.30;26.00
43488;BME280;29078;41.932;25.554;2022-08-01T09:06:19;99035.78;;;30.34;25.67
43488;BME280;29078;41.932;25.554;2022-08-01T09:08:45;98993.97;;;30.22;25.96
43488;BME280;29078;41.932;25.554;2022-08-01T09:11:10;99013.53;;;30.58;25.97
43488;BME280;29078;41.932;25.554;2022-08-01T09:13:36;98995.56;;;30.57;25.80
43488;BME280;29078;41.932;25.554;2022-08-01T09:16:02;98992.22;;;30.52;25.43
43488;BME280;29078;41.932;25.554;2022-08-01T09:18:35;99025.50;;;30.92;25.44
43488;BME280;29078;41.932;25.554;2022-08-01T09:23:47;98998.53;;;30.99;25.03
43488;BME280;29078;41.932;25.554;2022-08-01T09:26:16;98994.69;;;31.00;24.79
43488;BME280;29078;41.932;25.554;2022-08-01T09:28:43;99015.81;;;31.29;24.31
43488;BME280;29078;41.932;25.554;2022-08-01T09:31:14;99003.00;;;31.50;24.54
43488;BME280;29078;41.932;25.554;2022-08-01T09:33:58;99024.34;;;31.57;23.70
43488;BME280;29078;41.932;25.554;2022-08-01T09:36:25;98989.59;;;31.66;24.02
43488;BME280;29078;41.932;25.554;2022-08-01T09:38:53;98976.25;;;31.73;23.91
43488;BME280;29078;41.932;25.554;2022-08-01T09:41:30;99014.19;;;32.16;23.40
43488;BME280;29078;41.932;25.554;2022-08-01T09:43:56;98993.69;;;32.31;23.47
43488;BME280;29078;41.932;25.554;2022-08-01T09:46:22;99000.75;;;32.65;23.25
43488;BME280;29078;41.932;25.554;2022-08-01T09:49:01;98986.50;;;32.60;23.19
43488;BME280;29078;41.932;25.554;2022-08-01T09:51:31;98990.50;;;32.83;23.12
43488;BME280;29078;41.932;25.554;2022-08-01T09:53:58;98955.88;;;32.66;23.14
43488;BME280;29078;41.932;25.554;2022-08-01T09:56:24;98936.34;;;32.76;22.95
43488;BME280;29078;41.932;25.554;2022-08-01T09:58:57;99001.84;;;33.30;22.36
43488;BME280;29078;41.932;25.554;2022-08-01T10:01:24;99014.50;;;33.35;22.44
43488;BME280;29078;41.932;25.554;2022-08-01T10:04:10;98957.13;;;33.14;22.23
43488;BME280;29078;41.932;25.554;2022-08-01T10:06:37;98989.53;;;33.36;22.03
43488;BME280;29078;41.932;25.554;2022-08-01T10:09:03;99001.31;;;33.49;22.12
43488;BME280;29078;41.932;25.554;2022-08-01T10:11:28;98984.97;;;33.40;22.26
43488;BME280;29078;41.932;25.554;2022-08-01T10:13:56;98983.16;;;33.57;21.90
43488;BME280;29078;41.932;25.554;2022-08-01T10:16:25;99018.34;;;34.07;22.04
43488;BME280;29078;41.932;25.554;2022-08-01T10:18:54;99006.69;;;34.22;21.85
43488;BME280;29078;41.932;25.554;2022-08-01T10:21:22;99005.81;;;34.06;21.06
43488;BME280;29078;41.932;25.554;2022-08-01T10:23:50;98999.72;;;34.25;21.24
43488;BME280;29078;41.932;25.554;2022-08-01T10:26:18;98988.06;;;34.28;21.27
43488;BME280;29078;41.932;25.554;2022-08-01T10:28:44;98994.44;;;34.32;20.76
43488;BME280;29078;41.932;25.554;2022-08-01T10:31:13;98955.31;;;34.19;21.20
43488;BME280;29078;41.932;25.554;2022-08-01T10:33:39;98988.41;;;34.54;21.22
43488;BME280;29078;41.932;25.554;2022-08-01T10:36:06;98995.69;;;34.62;20.77
43488;BME280;29078;41.932;25.554;2022-08-01T10:38:32;98957.53;;;34.41;20.65
43488;BME280;29078;41.932;25.554;2022-08-01T10:40:59;98884.72;;;34.00;20.79
43488;BME280;29078;41.932;25.554;2022-08-01T10:43:27;98955.53;;;34.54;20.70
43488;BME280;29078;41.932;25.554;2022-08-01T10:45:52;98982.31;;;34.89;20.44
43488;BME280;29078;41.932;25.554;2022-08-01T10:51:04;99013.59;;;35.16;20.29
43488;BME280;29078;41.932;25.554;2022-08-01T10:53:30;98918.66;;;34.67;20.38
43488;BME280;29078;41.932;25.554;2022-08-01T10:56:04;98984.72;;;35.22;19.98
43488;BME280;29078;41.932;25.554;2022-08-01T10:58:36;98947.91;;;35.07;20.20
43488;BME280;29078;41.932;25.554;2022-08-01T11:01:15;98995.41;;;35.58;19.71
43488;BME280;29078;41.932;25.554;2022-08-01T11:03:45;98998.94;;;35.75;20.23
43488;BME280;29078;41.932;25.554;2022-08-01T11:12:12;99009.84;;;35.87;19.22
43488;BME280;29078;41.932;25.554;2022-08-01T11:17:38;98987.34;;;35.65;19.64
43488;BME280;29078;41.932;25.554;2022-08-01T11:20:13;98938.81;;;35.54;19.48
43488;BME280;29078;41.932;25.554;2022-08-01T11:25:23;98937.91;;;35.81;19.16
43488;BME280;29078;41.932;25.554;2022-08-01T11:27:48;98938.25;;;35.99;19.34
43488;BME280;29078;41.932;25.554;2022-08-01T11:32:50;98924.16;;;36.01;19.03
43488;BME280;29078;41.932;25.554;2022-08-01T11:35:16;98991.97;;;36.51;19.12
43488;BME280;29078;41.932;25.554;2022-08-01T11:37:43;98974.06;;;36.41;19.06
43488;BME280;29078;41.932;25.554;2022-08-01T11:40:26;98941.31;;;36.33;19.10
43488;BME280;29078;41.932;25.554;2022-08-01T11:45:49;98917.06;;;36.19;19.12
43488;BME280;29078;41.932;25.554;2022-08-01T11:48:27;98918.78;;;36.27;19.36
43488;BME280;29078;41.932;25.554;2022-08-01T11:50:57;98945.03;;;36.63;18.72
43488;BME280;29078;41.932;25.554;2022-08-01T11:53:22;98905.44;;;36.45;19.03
43488;BME280;29078;41.932;25.554;2022-08-01T11:55:52;98976.88;;;36.83;18.69
43488;BME280;29078;41.932;25.554;2022-08-01T11:58:23;98968.78;;;36.94;18.94
43488;BME280;29078;41.932;25.554;2022-08-01T12:00:53;98966.63;;;37.07;18.89
43488;BME280;29078;41.932;25.554;2022-08-01T12:03:27;98942.06;;;37.17;18.24
43488;BME280;29078;41.932;25.554;2022-08-01T12:05:54;98925.69;;;36.79;18.76
43488;BME280;29078;41.932;25.554;2022-08-01T12:08:32;98969.38;;;37.07;18.63
43488;BME280;29078;41.932;25.554;2022-08-01T12:11:03;98924.38;;;36.96;18.87
43488;BME280;29078;41.932;25.554;2022-08-01T12:13:40;98917.22;;;36.68;18.83
43488;BME280;29078;41.932;25.554;2022-08-01T12:16:07;98962.34;;;36.64;19.22
43488;BME280;29078;41.932;25.554;2022-08-01T12:18:38;98896.75;;;36.43;19.01
43488;BME280;29078;41.932;25.554;2022-08-01T12:21:05;98950.06;;;37.03;18.82
43488;BME280;29078;41.932;25.554;2022-08-01T12:23:30;98955.31;;;36.66;18.96
43488;BME280;29078;41.932;25.554;2022-08-01T12:25:55;98949.31;;;36.41;19.41
43488;BME280;29078;41.932;25.554;2022-08-01T12:28:21;98948.28;;;36.69;19.21
43488;BME280;29078;41.932;25.554;2022-08-01T12:30:48;98935.59;;;36.83;19.13
43488;BME280;29078;41.932;25.554;2022-08-01T12:33:17;98937.22;;;37.11;18.88
43488;BME280;29078;41.932;25.554;2022-08-01T12:35:43;98910.09;;;36.86;18.82
43488;BME280;29078;41.932;25.554;2022-08-01T12:38:20;98942.78;;;37.14;18.93
43488;BME280;29078;41.932;25.554;2022-08-01T12:40:47;98943.78;;;37.03;18.92
43488;BME280;29078;41.932;25.554;2022-08-01T12:43:21;98933.56;;;37.03;18.66
43488;BME280;29078;41.932;25.554;2022-08-01T12:45:49;98928.34;;;37.21;18.66
43488;BME280;29078;41.932;25.554;2022-08-01T12:48:16;98906.09;;;37.30;18.52
43488;BME280;29078;41.932;25.554;2022-08-01T12:50:45;98923.22;;;37.46;18.46
43488;BME280;29078;41.932;25.554;2022-08-01T12:53:12;98922.28;;;37.35;18.18
43488;BME280;29078;41.932;25.554;2022-08-01T12:55:52;98929.53;;;37.46;17.88
43488;BME280;29078;41.932;25.554;2022-08-01T12:58:19;98877.22;;;37.20;18.05
43488;BME280;29078;41.932;25.554;2022-08-01T13:00:47;98874.59;;;37.04;18.12
43488;BME280;29078;41.932;25.554;2022-08-01T13:03:18;98911.84;;;37.47;18.08
43488;BME280;29078;41.932;25.554;2022-08-01T13:05:53;98865.06;;;37.51;18.37
43488;BME280;29078;41.932;25.554;2022-08-01T13:11:13;98915.59;;;38.22;18.21
43488;BME280;29078;41.932;25.554;2022-08-01T13:13:47;98911.44;;;38.39;18.08
43488;BME280;29078;41.932;25.554;2022-08-01T13:16:13;98900.47;;;38.46;17.60
43488;BME280;29078;41.932;25.554;2022-08-01T13:18:39;98872.75;;;37.68;17.80
43488;BME280;29078;41.932;25.554;2022-08-01T13:21:08;98907.53;;;37.76;18.30
43488;BME280;29078;41.932;25.554;2022-08-01T13:23:34;98899.91;;;37.66;18.42
43488;BME280;29078;41.932;25.554;2022-08-01T13:26:00;98919.91;;;37.33;19.10
43488;BME280;29078;41.932;25.554;2022-08-01T13:28:27;98906.84;;;37.27;18.63
43488;BME280;29078;41.932;25.554;2022-08-01T13:30:53;98908.72;;;37.22;18.69